createdAt,value
2022-09-18T00:01:19.843Z,98824.44
2022-09-18T00:03:46.907Z,98832.63
2022-09-18T00:06:15.969Z,98836.94
2022-09-18T00:08:42.666Z,98840.63
2022-09-18T00:11:11.513Z,98844.13
2022-09-18T00:13:39.557Z,98840.78
2022-09-18T00:16:08.229Z,98832.72
2022-09-18T00:18:34.811Z,98836.56
2022-09-18T00:21:14.789Z,98832.06
2022-09-18T00:23:42.226Z,98836.56
2022-09-18T00:26:10.940Z,98841.53
2022-09-18T00:28:37.495Z,98842.16
2022-09-18T00:31:13.030Z,98834.00
2022-09-18T00:33:40.342Z,98835.66
2022-09-18T00:36:09.901Z,98832.34
2022-09-18T00:38:36.771Z,98831.16
2022-09-18T00:41:06.787Z,98825.91
2022-09-18T00:43:35.699Z,98830.78
2022-09-18T00:46:15.576Z,98833.53
2022-09-18T00:49:05.325Z,98824.28
2022-09-18T00:51:34.522Z,98834.84
2022-09-18T00:54:19.469Z,98827.75
2022-09-18T00:56:48.546Z,98828.13
2022-09-18T00:59:22.161Z,98828.41
2022-09-18T01:01:48.848Z,98834.19
2022-09-18T01:04:15.482Z,98831.69
2022-09-18T01:06:53.919Z,98833.53
2022-09-18T01:10:06.508Z,98838.69
2022-09-18T01:12:51.510Z,98839.50
2022-09-18T01:15:33.421Z,98844.84
2022-09-18T01:18:11.622Z,98850.81
2022-09-18T01:20:50.653Z,98839.44
2022-09-18T01:24:00.400Z,98834.56
2022-09-18T01:26:45.605Z,98828.53
2022-09-18T01:29:20.944Z,98832.84
2022-09-18T01:31:54.576Z,98834.31
2022-09-18T01:34:40.619Z,98846.59
2022-09-18T01:37:30.820Z,98843.03
2022-09-18T01:40:31.089Z,98837.84
2022-09-18T01:43:02.673Z,98838.88
2022-09-18T01:45:33.795Z,98835.75
2022-09-18T01:48:05.692Z,98836.22
2022-09-18T01:50:36.042Z,98832.28
2022-09-18T01:53:11.943Z,98825.47
2022-09-18T01:55:41.214Z,98829.25
2022-09-18T01:58:12.224Z,98825.28
2022-09-18T02:00:43.242Z,98820.22
2022-09-18T02:03:33.739Z,98823.56
2022-09-18T02:06:08.880Z,98817.56
2022-09-18T02:08:43.772Z,98814.75
2022-09-18T02:11:15.075Z,98816.75
2022-09-18T02:13:46.518Z,98822.75
2022-09-18T02:16:44.427Z,98809.66
2022-09-18T02:19:26.431Z,98807.00
2022-09-18T02:21:56.123Z,98811.50
2022-09-18T02:24:28.021Z,98807.84
2022-09-18T02:26:56.558Z,98807.28
2022-09-18T02:29:25.267Z,98810.75
2022-09-18T02:31:52.311Z,98804.72
2022-09-18T02:34:20.080Z,98803.50
2022-09-18T02:36:55.595Z,98798.03
2022-09-18T02:39:33.996Z,98795.72
2022-09-18T02:42:26.143Z,98799.28
2022-09-18T02:45:08.332Z,98804.56
2022-09-18T02:47:56.611Z,98801.13
2022-09-18T02:50:31.446Z,98802.53
2022-09-18T02:53:23.561Z,98802.06
2022-09-18T02:56:16.598Z,98793.53
2022-09-18T02:58:51.886Z,98797.28
2022-09-18T03:01:21.714Z,98787.94
2022-09-18T03:03:48.307Z,98788.75
2022-09-18T03:06:14.816Z,98791.25
2022-09-18T03:08:41.343Z,98789.41
2022-09-18T03:11:07.730Z,98798.22
2022-09-18T03:13:34.117Z,98795.56
2022-09-18T03:16:00.652Z,98792.25
2022-09-18T03:18:27.548Z,98794.16
2022-09-18T03:20:54.163Z,98787.00
2022-09-18T03:23:20.587Z,98806.00
2022-09-18T03:25:50.087Z,98801.59
2022-09-18T03:28:17.289Z,98805.06
2022-09-18T03:30:45.227Z,98800.78
2022-09-18T03:33:11.828Z,98801.78
2022-09-18T03:35:38.541Z,98799.13
2022-09-18T03:38:05.055Z,98798.28
2022-09-18T03:40:31.632Z,98790.59
2022-09-18T03:42:58.499Z,98793.91
2022-09-18T03:45:24.997Z,98796.56
2022-09-18T03:47:51.479Z,98791.25
2022-09-18T03:50:17.964Z,98793.91
2022-09-18T03:52:49.034Z,98800.50
2022-09-18T03:55:17.651Z,98795.38
2022-09-18T03:57:45.945Z,98796.00
2022-09-18T04:00:13.198Z,98789.84
2022-09-18T04:02:39.675Z,98792.16
2022-09-18T04:05:06.880Z,98800.34
2022-09-18T04:07:33.372Z,98809.22
2022-09-18T04:10:00.087Z,98805.53
2022-09-18T04:12:26.603Z,98810.41
2022-09-18T04:14:53.294Z,98811.91
2022-09-18T04:17:19.896Z,98814.72
2022-09-18T04:19:51.363Z,98813.81
2022-09-18T04:22:20.027Z,98821.16
2022-09-18T04:24:46.588Z,98819.97
2022-09-18T04:27:13.165Z,98820.88
2022-09-18T04:29:39.767Z,98820.06
2022-09-18T04:32:06.264Z,98818.22
2022-09-18T04:34:32.974Z,98822.09
2022-09-18T04:36:59.603Z,98812.25
2022-09-18T04:39:25.970Z,98818.88
2022-09-18T04:41:52.417Z,98813.38
2022-09-18T04:44:18.834Z,98816.19
2022-09-18T04:46:45.410Z,98818.03
2022-09-18T04:49:11.866Z,98826.84
2022-09-18T04:51:38.477Z,98823.28
2022-09-18T04:54:05.175Z,98829.06
2022-09-18T04:56:31.579Z,98824.94
2022-09-18T04:58:58.175Z,98823.28
2022-09-18T05:01:24.804Z,98833.81
2022-09-18T05:03:51.437Z,98824.75
2022-09-18T05:06:18.015Z,98814.56
2022-09-18T05:08:44.467Z,98817.47
2022-09-18T05:11:10.845Z,98823.38
2022-09-18T05:13:37.444Z,98819.22
2022-09-18T05:16:04.106Z,98823.38
2022-09-18T05:18:30.964Z,98833.00
2022-09-18T05:21:04.673Z,98836.69
2022-09-18T05:23:31.295Z,98827.69
2022-09-18T05:25:57.824Z,98843.66
2022-09-18T05:28:24.513Z,98838.97
2022-09-18T05:30:50.939Z,98841.00
2022-09-18T05:33:17.629Z,98837.72
2022-09-18T05:35:44.054Z,98843.28
2022-09-18T05:38:11.472Z,98846.03
2022-09-18T05:40:38.385Z,98840.09
2022-09-18T05:43:05.791Z,98842.28
2022-09-18T05:45:32.409Z,98844.31
2022-09-18T05:48:01.287Z,98847.06
2022-09-18T05:50:28.815Z,98843.78
2022-09-18T05:53:16.617Z,98841.94
2022-09-18T05:55:43.554Z,98849.34
2022-09-18T05:58:15.347Z,98850.47
2022-09-18T06:00:42.117Z,98850.75
2022-09-18T06:03:14.005Z,98850.19
2022-09-18T06:05:41.675Z,98844.59
2022-09-18T06:08:11.105Z,98843.75
2022-09-18T06:10:40.200Z,98843.56
2022-09-18T06:13:09.035Z,98848.69
2022-09-18T06:15:36.280Z,98850.75
2022-09-18T06:18:03.925Z,98852.47
2022-09-18T06:20:30.348Z,98852.59
2022-09-18T06:23:00.855Z,98853.84
2022-09-18T06:25:28.554Z,98861.47
2022-09-18T06:27:59.268Z,98856.31
2022-09-18T06:30:31.102Z,98856.31
2022-09-18T06:33:02.508Z,98861.28
2022-09-18T06:35:30.197Z,98861.75
2022-09-18T06:38:00.639Z,98867.25
2022-09-18T06:40:27.203Z,98862.13
2022-09-18T06:42:58.018Z,98860.47
2022-09-18T06:45:25.340Z,98860.38
2022-09-18T06:47:52.345Z,98860.81
2022-09-18T06:50:18.761Z,98868.16
2022-09-18T06:52:45.198Z,98864.66
2022-09-18T06:55:11.980Z,98867.09
2022-09-18T06:57:38.481Z,98868.16
2022-09-18T07:00:05.629Z,98860.25
2022-09-18T07:02:32.150Z,98856.50
2022-09-18T07:04:58.682Z,98861.72
2022-09-18T07:07:25.338Z,98859.88
2022-09-18T07:09:51.847Z,98864.56
2022-09-18T07:12:18.511Z,98866.66
2022-09-18T07:14:45.272Z,98865.47
2022-09-18T07:17:17.687Z,98860.41
2022-09-18T07:19:44.677Z,98866.47
2022-09-18T07:22:11.409Z,98862.72
2022-09-18T07:24:38.028Z,98867.28
2022-09-18T07:27:04.681Z,98856.63
2022-09-18T07:29:31.122Z,98868.63
2022-09-18T07:31:59.239Z,98861.06
2022-09-18T07:34:25.818Z,98860.25
2022-09-18T07:36:52.255Z,98858.84
2022-09-18T07:39:18.660Z,98869.03
2022-09-18T07:41:45.210Z,98876.25
2022-09-18T07:44:11.989Z,98872.88
2022-09-18T07:46:38.535Z,98877.09
2022-09-18T07:49:05.109Z,98878.94
2022-09-18T07:51:31.642Z,98872.72
2022-09-18T07:53:58.189Z,98875.38
2022-09-18T07:56:24.646Z,98881.44
2022-09-18T07:58:51.061Z,98875.63
2022-09-18T08:01:17.797Z,98879.97
2022-09-18T08:03:44.181Z,98873.81
2022-09-18T08:06:10.642Z,98881.00
2022-09-18T08:08:37.143Z,98882.75
2022-09-18T08:11:03.821Z,98875.13
2022-09-18T08:13:30.534Z,98882.38
2022-09-18T08:15:57.045Z,98876.91
2022-09-18T08:18:23.567Z,98875.06
2022-09-18T08:20:50.362Z,98871.63
2022-09-18T08:23:16.897Z,98881.63
2022-09-18T08:25:43.370Z,98880.81
2022-09-18T08:28:10.877Z,98879.22
2022-09-18T08:30:37.727Z,98882.72
2022-09-18T08:33:06.988Z,98883.97
2022-09-18T08:35:34.002Z,98880.22
2022-09-18T08:38:01.015Z,98887.88
2022-09-18T08:40:42.650Z,98878.88
2022-09-18T08:43:25.410Z,98883.44
2022-09-18T08:46:07.627Z,98867.22
2022-09-18T08:48:42.572Z,98866.75
2022-09-18T08:51:23.465Z,98873.94
2022-09-18T08:53:52.196Z,98874.66
2022-09-18T08:56:23.692Z,98875.97
2022-09-18T08:58:55.910Z,98879.50
2022-09-18T09:01:40.586Z,98882.44
2022-09-18T09:04:20.160Z,98883.22
2022-09-18T09:07:05.081Z,98877.47
2022-09-18T09:09:45.784Z,98864.59
2022-09-18T09:12:42.756Z,98870.72
2022-09-18T09:15:32.101Z,98874.63
2022-09-18T09:18:18.286Z,98873.16
2022-09-18T09:20:51.244Z,98869.44
2022-09-18T09:23:32.923Z,98877.66
2022-09-18T09:26:07.141Z,98867.28
2022-09-18T09:28:55.428Z,98872.84
2022-09-18T09:31:29.614Z,98879.59
2022-09-18T09:34:01.497Z,98871.81
2022-09-18T09:36:30.225Z,98875.09
2022-09-18T09:39:11.319Z,98886.19
2022-09-18T09:41:43.703Z,98877.97
2022-09-18T09:44:10.140Z,98886.66
2022-09-18T09:46:51.142Z,98888.34
2022-09-18T09:49:27.417Z,98876.84
2022-09-18T09:52:09.354Z,98880.56
2022-09-18T09:54:36.173Z,98874.63
2022-09-18T09:57:24.396Z,98871.53
2022-09-18T10:00:14.547Z,98871.16
2022-09-18T10:02:58.564Z,98866.88
2022-09-18T10:05:31.271Z,98865.03
2022-09-18T10:08:12.728Z,98861.72
2022-09-18T10:10:51.208Z,98869.19
2022-09-18T10:13:47.080Z,98869.44
2022-09-18T10:16:22.487Z,98864.72
2022-09-18T10:18:50.140Z,98858.16
2022-09-18T10:21:22.552Z,98855.47
2022-09-18T10:23:54.868Z,98856.31
2022-09-18T10:26:31.004Z,98850.56
2022-09-18T10:28:57.498Z,98849.28
2022-09-18T10:31:43.941Z,98846.94
2022-09-18T10:34:49.065Z,98843.28
2022-09-18T10:37:15.552Z,98839.50
2022-09-18T10:39:50.972Z,98827.59
2022-09-18T10:42:21.776Z,98830.38
2022-09-18T10:44:57.871Z,98828.88
2022-09-18T10:47:29.739Z,98819.56
2022-09-18T10:50:00.717Z,98831.84
2022-09-18T10:52:36.228Z,98822.53
2022-09-18T10:55:05.523Z,98818.69
2022-09-18T10:57:32.014Z,98819.47
2022-09-18T10:59:58.716Z,98819.09
2022-09-18T11:02:35.178Z,98820.00
2022-09-18T11:05:02.740Z,98816.50
2022-09-18T11:07:29.388Z,98811.63
2022-09-18T11:09:56.073Z,98807.63
2022-09-18T11:12:25.391Z,98805.59
2022-09-18T11:15:19.231Z,98795.72
2022-09-18T11:17:50.895Z,98792.75
2022-09-18T11:20:27.422Z,98784.50
2022-09-18T11:22:54.455Z,98800.75
2022-09-18T11:25:28.942Z,98792.78
2022-09-18T11:27:57.878Z,98787.97
2022-09-18T11:30:27.950Z,98785.66
2022-09-18T11:33:29.594Z,98790.22
2022-09-18T11:36:00.592Z,98782.34
2022-09-18T11:38:27.691Z,98783.09
2022-09-18T11:40:56.732Z,98785.22
2022-09-18T11:43:33.508Z,98784.75
2022-09-18T11:46:50.859Z,98777.22
2022-09-18T11:49:43.732Z,98760.56
2022-09-18T11:52:28.970Z,98760.56
2022-09-18T11:55:02.647Z,98744.94
2022-09-18T11:57:38.491Z,98736.47
2022-09-18T12:00:18.815Z,98739.03
2022-09-18T12:03:23.104Z,98745.25
2022-09-18T12:06:06.613Z,98736.34
2022-09-18T12:08:54.818Z,98735.59
2022-09-18T12:11:33.067Z,98740.16
2022-09-18T12:14:27.278Z,98734.50
2022-09-18T12:16:59.114Z,98737.69
2022-09-18T12:19:41.280Z,98735.31
2022-09-18T12:22:32.954Z,98732.09
2022-09-18T12:24:59.611Z,98741.72
2022-09-18T12:27:38.244Z,98743.31
2022-09-18T12:30:16.425Z,98740.69
2022-09-18T12:33:07.642Z,98745.97
2022-09-18T12:35:57.147Z,98737.56
2022-09-18T12:38:53.267Z,98728.44
2022-09-18T12:41:35.075Z,98727.47
2022-09-18T12:44:28.456Z,98731.66
2022-09-18T12:47:22.165Z,98721.22
2022-09-18T12:50:26.959Z,98711.84
2022-09-18T12:53:16.897Z,98725.88
2022-09-18T12:55:56.013Z,98727.22
2022-09-18T12:58:40.604Z,98710.38
2022-09-18T13:01:36.016Z,98698.78
2022-09-18T13:04:16.621Z,98700.00
2022-09-18T13:06:49.944Z,98694.63
2022-09-18T13:09:25.806Z,98711.13
2022-09-18T13:11:59.150Z,98711.69
2022-09-18T13:14:35.633Z,98704.44
2022-09-18T13:17:15.810Z,98696.94
2022-09-18T13:19:55.408Z,98700.69
2022-09-18T13:22:25.526Z,98708.59
2022-09-18T13:24:54.143Z,98697.44
2022-09-18T13:27:24.540Z,98706.41
2022-09-18T13:29:55.193Z,98688.41
2022-09-18T13:32:22.676Z,98695.91
2022-09-18T13:34:56.497Z,98699.31
2022-09-18T13:37:28.919Z,98697.53
2022-09-18T13:40:10.581Z,98684.25
2022-09-18T13:42:42.489Z,98680.50
2022-09-18T13:45:25.104Z,98679.22
2022-09-18T13:48:07.046Z,98683.63
2022-09-18T13:50:36.547Z,98684.06
2022-09-18T13:53:04.587Z,98680.94
2022-09-18T13:55:36.437Z,98668.84
2022-09-18T13:58:30.741Z,98681.78
2022-09-18T14:00:58.792Z,98687.16
2022-09-18T14:03:27.914Z,98692.13
2022-09-18T14:05:55.078Z,98680.22
2022-09-18T14:08:21.394Z,98676.22
2022-09-18T14:10:59.856Z,98673.22
2022-09-18T14:13:43.497Z,98672.56
2022-09-18T14:16:22.418Z,98670.72
2022-09-18T14:18:48.860Z,98681.22
2022-09-18T14:21:20.952Z,98665.13
2022-09-18T14:23:47.367Z,98658.00
2022-09-18T14:26:28.745Z,98664.56
2022-09-18T14:29:00.512Z,98671.09
2022-09-18T14:31:30.066Z,98665.72
2022-09-18T14:34:21.443Z,98657.94
2022-09-18T14:36:59.014Z,98660.28
2022-09-18T14:39:35.162Z,98661.88
2022-09-18T14:42:05.729Z,98660.34
2022-09-18T14:44:34.092Z,98663.66
2022-09-18T14:47:02.886Z,98651.41
2022-09-18T14:49:37.047Z,98654.09
2022-09-18T14:52:19.122Z,98656.22
2022-09-18T14:54:47.481Z,98657.84
2022-09-18T14:57:16.591Z,98650.69
2022-09-18T14:59:43.326Z,98656.06
2022-09-18T15:02:18.630Z,98645.84
2022-09-18T15:04:45.597Z,98645.91
2022-09-18T15:07:18.673Z,98629.56
2022-09-18T15:09:48.505Z,98634.84
2022-09-18T15:12:21.069Z,98630.59
2022-09-18T15:14:47.906Z,98627.53
2022-09-18T15:17:22.989Z,98627.53
2022-09-18T15:19:56.308Z,98632.16
2022-09-18T15:22:23.713Z,98629.97
2022-09-18T15:24:51.734Z,98622.09
2022-09-18T15:27:19.897Z,98627.66
2022-09-18T15:29:59.364Z,98614.31
2022-09-18T15:32:30.729Z,98611.31
2022-09-18T15:34:58.840Z,98610.91
2022-09-18T15:37:27.001Z,98608.22
2022-09-18T15:40:06.831Z,98608.66
2022-09-18T15:42:37.330Z,98609.56
2022-09-18T15:45:16.053Z,98608.56
2022-09-18T15:47:42.410Z,98611.09
2022-09-18T15:50:34.660Z,98614.16
2022-09-18T15:53:09.415Z,98607.38
2022-09-18T15:55:53.869Z,98615.84
2022-09-18T15:58:43.265Z,98615.84
2022-09-18T16:01:19.504Z,98612.56
2022-09-18T16:03:46.859Z,98607.44
2022-09-18T16:06:27.597Z,98599.59
2022-09-18T16:08:55.164Z,98595.72
2022-09-18T16:11:45.614Z,98594.72
2022-09-18T16:14:41.611Z,98604.63
2022-09-18T16:17:30.638Z,98604.25
2022-09-18T16:20:01.495Z,98603.44
2022-09-18T16:22:30.488Z,98599.53
2022-09-18T16:24:58.198Z,98586.56
2022-09-18T16:27:26.123Z,98585.38
2022-09-18T16:29:52.774Z,98583.72
2022-09-18T16:32:19.207Z,98578.44
2022-09-18T16:34:45.568Z,98573.50
2022-09-18T16:37:13.153Z,98577.63
2022-09-18T16:39:39.968Z,98575.38
2022-09-18T16:42:18.881Z,98581.19
2022-09-18T16:44:46.183Z,98576.47
2022-09-18T16:47:14.705Z,98577.53
2022-09-18T16:49:45.736Z,98577.34
2022-09-18T16:52:13.103Z,98574.47
2022-09-18T16:54:40.335Z,98576.78
2022-09-18T16:57:13.753Z,98570.81
2022-09-18T16:59:42.653Z,98575.38
2022-09-18T17:02:11.371Z,98572.94
2022-09-18T17:04:37.848Z,98579.97
2022-09-18T17:07:04.310Z,98564.72
2022-09-18T17:09:30.988Z,98560.22
2022-09-18T17:11:58.901Z,98577.53
2022-09-18T17:14:26.137Z,98568.28
2022-09-18T17:16:52.821Z,98564.19
2022-09-18T17:19:20.051Z,98581.06
2022-09-18T17:21:46.452Z,98562.94
2022-09-18T17:24:13.348Z,98559.88
2022-09-18T17:26:41.143Z,98562.16
2022-09-18T17:29:09.865Z,98558.25
2022-09-18T17:31:36.519Z,98564.84
2022-09-18T17:34:03.075Z,98567.53
2022-09-18T17:36:29.929Z,98553.53
2022-09-18T17:39:00.565Z,98558.47
2022-09-18T17:41:28.671Z,98560.31
2022-09-18T17:43:55.356Z,98554.56
2022-09-18T17:46:21.911Z,98557.25
2022-09-18T17:48:49.069Z,98548.38
2022-09-18T17:51:17.074Z,98551.28
2022-09-18T17:53:44.983Z,98553.34
2022-09-18T17:56:13.619Z,98552.53
2022-09-18T17:58:40.162Z,98552.72
2022-09-18T18:01:18.923Z,98547.38
2022-09-18T18:03:46.472Z,98545.53
2022-09-18T18:06:13.039Z,98549.63
2022-09-18T18:08:39.951Z,98547.19
2022-09-18T18:11:09.177Z,98547.38
2022-09-18T18:13:37.297Z,98551.50
2022-09-18T18:16:08.763Z,98556.84
2022-09-18T18:18:36.463Z,98554.16
2022-09-18T18:21:03.828Z,98553.75
2022-09-18T18:23:30.520Z,98562.00
2022-09-18T18:26:00.449Z,98563.00
2022-09-18T18:28:29.696Z,98562.81
2022-09-18T18:31:00.780Z,98566.31
2022-09-18T18:33:28.052Z,98563.44
2022-09-18T18:35:54.511Z,98558.28
2022-09-18T18:38:21.090Z,98555.84
2022-09-18T18:40:47.536Z,98557.84
2022-09-18T18:43:13.896Z,98553.31
2022-09-18T18:45:49.944Z,98559.91
2022-09-18T18:48:16.541Z,98564.03
2022-09-18T18:50:43.129Z,98554.97
2022-09-18T18:53:09.648Z,98560.97
2022-09-18T18:55:37.365Z,98567.34
2022-09-18T18:58:04.071Z,98569.00
2022-09-18T19:00:32.352Z,98562.16
2022-09-18T19:02:58.981Z,98558.91
2022-09-18T19:05:25.480Z,98561.19
2022-09-18T19:07:51.981Z,98566.97
2022-09-18T19:10:18.631Z,98563.88
2022-09-18T19:12:45.794Z,98565.31
2022-09-18T19:15:12.521Z,98565.13
2022-09-18T19:17:38.957Z,98564.09
2022-09-18T19:20:05.947Z,98564.47
2022-09-18T19:22:32.462Z,98564.91
2022-09-18T19:24:59.278Z,98573.16
2022-09-18T19:27:25.741Z,98569.88
2022-09-18T19:29:52.196Z,98564.25
2022-09-18T19:32:18.796Z,98560.75
2022-09-18T19:34:45.584Z,98560.19
2022-09-18T19:37:14.142Z,98551.53
2022-09-18T19:39:42.440Z,98558.75
2022-09-18T19:42:13.902Z,98550.31
2022-09-18T19:44:49.081Z,98555.03
2022-09-18T19:47:26.305Z,98563.47
2022-09-18T19:49:53.736Z,98564.91
2022-09-18T19:52:22.894Z,98564.09
2022-09-18T19:54:51.319Z,98564.91
2022-09-18T19:57:19.318Z,98565.94
2022-09-18T19:59:46.212Z,98563.28
2022-09-18T20:02:14.922Z,98573.97
2022-09-18T20:04:41.545Z,98563.69
2022-09-18T20:07:08.244Z,98573.38
2022-09-18T20:09:34.800Z,98568.81
2022-09-18T20:12:01.538Z,98568.81
2022-09-18T20:14:30.291Z,98567.59
2022-09-18T20:16:56.716Z,98567.19
2022-09-18T20:19:23.916Z,98568.44
2022-09-18T20:21:50.924Z,98586.97
2022-09-18T20:24:17.631Z,98578.38
2022-09-18T20:26:44.026Z,98584.53
2022-09-18T20:29:15.286Z,98589.66
2022-09-18T20:31:43.384Z,98590.06
2022-09-18T20:34:10.566Z,98595.44
2022-09-18T20:36:37.005Z,98589.28
2022-09-18T20:39:04.329Z,98596.28
2022-09-18T20:41:31.004Z,98602.91
2022-09-18T20:43:58.900Z,98602.03
2022-09-18T20:46:25.388Z,98595.69
2022-09-18T20:48:52.110Z,98602.47
2022-09-18T20:51:18.839Z,98600.47
2022-09-18T20:53:46.695Z,98600.66
2022-09-18T20:56:15.373Z,98609.72
2022-09-18T20:58:42.278Z,98604.78
2022-09-18T21:01:14.285Z,98605.41
2022-09-18T21:03:43.057Z,98600.47
2022-09-18T21:06:21.863Z,98601.69
2022-09-18T21:08:51.290Z,98597.81
2022-09-18T21:11:24.286Z,98589.78
2022-09-18T21:13:56.299Z,98598.41
2022-09-18T21:16:24.682Z,98591.84
2022-09-18T21:18:52.714Z,98596.75
2022-09-18T21:21:19.923Z,98593.47
2022-09-18T21:23:46.731Z,98590.78
2022-09-18T21:26:16.923Z,98595.50
2022-09-18T21:28:44.031Z,98588.75
2022-09-18T21:31:11.216Z,98582.56
2022-09-18T21:33:38.875Z,98578.88
2022-09-18T21:36:05.474Z,98581.94
2022-09-18T21:38:31.913Z,98589.75
2022-09-18T21:41:06.871Z,98590.16
2022-09-18T21:43:35.630Z,98588.69
2022-09-18T21:46:03.637Z,98591.78
2022-09-18T21:48:31.966Z,98585.34
2022-09-18T21:51:07.317Z,98584.34
2022-09-18T21:53:35.695Z,98586.78
2022-09-18T21:56:08.267Z,98574.88
2022-09-18T21:58:37.743Z,98592.53
2022-09-18T22:01:21.289Z,98588.84
2022-09-18T22:03:49.914Z,98590.09
2022-09-18T22:06:21.230Z,98590.16
2022-09-18T22:08:49.003Z,98588.91
2022-09-18T22:11:16.671Z,98590.97
2022-09-18T22:13:43.180Z,98588.91
2022-09-18T22:16:09.627Z,98586.63
2022-09-18T22:18:37.468Z,98587.25
2022-09-18T22:21:04.311Z,98588.69
2022-09-18T22:23:37.431Z,98585.84
2022-09-18T22:26:04.297Z,98590.97
2022-09-18T22:28:30.796Z,98591.59
2022-09-18T22:30:57.294Z,98599.59
2022-09-18T22:33:23.713Z,98587.25
2022-09-18T22:35:50.173Z,98591.38
2022-09-18T22:38:16.503Z,98600.81
2022-09-18T22:40:42.860Z,98594.25
2022-09-18T22:43:09.224Z,98600.59
2022-09-18T22:45:35.628Z,98596.28
2022-09-18T22:48:02.111Z,98603.91
2022-09-18T22:50:28.459Z,98612.94
2022-09-18T22:52:55.075Z,98613.97
2022-09-18T22:55:21.451Z,98613.13
2022-09-18T22:57:49.126Z,98619.31
2022-09-18T23:00:16.574Z,98619.66
2022-09-18T23:02:43.157Z,98615.63
2022-09-18T23:05:09.618Z,98626.09
2022-09-18T23:07:35.878Z,98620.56
2022-09-18T23:10:02.458Z,98628.16
2022-09-18T23:12:28.844Z,98630.63
2022-09-18T23:14:55.181Z,98639.25
2022-09-18T23:17:21.645Z,98651.81
2022-09-18T23:19:47.928Z,98666.72
2022-09-18T23:22:15.241Z,98669.25
2022-09-18T23:24:41.779Z,98680.00
2022-09-18T23:27:08.077Z,98691.81
2022-09-18T23:29:38.266Z,98687.59
2022-09-18T23:32:05.607Z,98700.56
2022-09-18T23:34:32.050Z,98708.09
2022-09-18T23:36:58.764Z,98712.66
2022-09-18T23:39:31.856Z,98720.22
2022-09-18T23:42:00.167Z,98724.19
2022-09-18T23:44:27.074Z,98723.56
2022-09-18T23:46:54.905Z,98731.22
2022-09-18T23:49:21.658Z,98734.66
2022-09-18T23:51:48.606Z,98747.91
2022-09-18T23:54:19.685Z,98752.56
2022-09-18T23:56:48.715Z,98747.44
2022-09-18T23:59:22.574Z,98739.84
